Weather at Oostende Airport - EBOS


metar: EBOS 231420Z 01008KT 7000 FEW035 17/10 Q1019 NOSIG

13 minuten geleden, om 14:20 UTC, de wind blies met windsnelheden van 4.1 meter per seconde(9.2 mijl per uur) vanuit Noord nabij Oostende airport. De temperatuur was 17 °C (63 °F), en de barometerdruk was 1,019 hPa (30.09 inHg). De relatieve vochtigheid was 63.4%. er was weinig bewolking op een hoogte van 1067 meter (3500 voet). De zichtbaarheid was 7.0 kilometer (4.3 mijl).

temperature image   windir image sky image 

Last 24 hour graph Oostende Airport - EBOS